sensor_id;sensor_type;location;lat;lon;timestamp;temperature;humidity
53152;DHT22;39234;53.158;6.322;2023-04-03T00:21:12;2.10;99.90
53152;DHT22;39234;53.158;6.322;2023-04-03T00:38:17;1.90;99.90
53152;DHT22;39234;53.158;6.322;2023-04-03T00:40:46;1.80;99.90
53152;DHT22;39234;53.158;6.322;2023-04-03T00:43:14;2.00;99.90
53152;DHT22;39234;53.158;6.322;2023-04-03T00:45:43;1.90;99.90
53152;DHT22;39234;53.158;6.322;2023-04-03T00:48:17;2.10;99.90
53152;DHT22;39234;53.158;6.322;2023-04-03T00:50:44;1.90;99.90
53152;DHT22;39234;53.158;6.322;2023-04-03T00:53:19;1.90;99.90
53152;DHT22;39234;53.158;6.322;2023-04-03T00:55:48;1.90;99.90
53152;DHT22;39234;53.158;6.322;2023-04-03T01:06:11;1.70;99.90
53152;DHT22;39234;53.158;6.322;2023-04-03T01:13:31;1.70;99.90
53152;DHT22;39234;53.158;6.322;2023-04-03T01:16:01;1.70;99.90
53152;DHT22;39234;53.158;6.322;2023-04-03T01:26:43;1.30;99.90
53152;DHT22;39234;53.158;6.322;2023-04-03T01:31:58;1.30;99.90
53152;DHT22;39234;53.158;6.322;2023-04-03T01:36:51;1.10;99.90
53152;DHT22;39234;53.158;6.322;2023-04-03T02:20:46;0.70;99.90
53152;DHT22;39234;53.158;6.322;2023-04-03T02:45:07;0.20;99.90
53152;DHT22;39234;53.158;6.322;2023-04-03T03:24:07;-0.20;99.90
53152;DHT22;39234;53.158;6.322;2023-04-03T04:25:03;-0.50;99.90
53152;DHT22;39234;53.158;6.322;2023-04-03T05:30:55;-0.10;99.90
53152;DHT22;39234;53.158;6.322;2023-04-03T05:33:22;0.30;99.90
53152;DHT22;39234;53.158;6.322;2023-04-03T05:52:52;3.30;99.90
53152;DHT22;39234;53.158;6.322;2023-04-03T05:57:46;3.70;99.90
53152;DHT22;39234;53.158;6.322;2023-04-03T06:00:13;4.40;99.90
53152;DHT22;39234;53.158;6.322;2023-04-03T06:05:08;6.30;99.90
53152;DHT22;39234;53.158;6.322;2023-04-03T06:07:34;6.20;99.90
53152;DHT22;39234;53.158;6.322;2023-04-03T06:10:01;6.90;99.90
53152;DHT22;39234;53.158;6.322;2023-04-03T06:12:26;8.10;99.90
53152;DHT22;39234;53.158;6.322;2023-04-03T06:14:55;8.10;99.90
53152;DHT22;39234;53.158;6.322;2023-04-03T06:17:21;8.50;99.90
53152;DHT22;39234;53.158;6.322;2023-04-03T06:19:47;9.00;99.90
53152;DHT22;39234;53.158;6.322;2023-04-03T06:22:13;9.40;99.90
53152;DHT22;39234;53.158;6.322;2023-04-03T06:24:38;10.00;99.90
53152;DHT22;39234;53.158;6.322;2023-04-03T06:27:04;10.40;99.90
53152;DHT22;39234;53.158;6.322;2023-04-03T06:29:30;10.50;99.90
53152;DHT22;39234;53.158;6.322;2023-04-03T06:31:56;10.90;99.90
53152;DHT22;39234;53.158;6.322;2023-04-03T06:34:22;11.10;99.90
53152;DHT22;39234;53.158;6.322;2023-04-03T06:36:48;11.40;99.90
53152;DHT22;39234;53.158;6.322;2023-04-03T06:39:21;12.00;99.90
53152;DHT22;39234;53.158;6.322;2023-04-03T06:41:48;12.20;99.90
53152;DHT22;39234;53.158;6.322;2023-04-03T06:44:14;12.00;99.90
53152;DHT22;39234;53.158;6.322;2023-04-03T06:46:41;13.00;99.90
53152;DHT22;39234;53.158;6.322;2023-04-03T06:49:07;12.90;99.90
53152;DHT22;39234;53.158;6.322;2023-04-03T06:51:34;12.90;99.90
53152;DHT22;39234;53.158;6.322;2023-04-03T06:54:01;12.80;99.90
53152;DHT22;39234;53.158;6.322;2023-04-03T06:56:28;13.30;99.90
53152;DHT22;39234;53.158;6.322;2023-04-03T06:58:55;13.20;99.90
53152;DHT22;39234;53.158;6.322;2023-04-03T07:01:24;13.70;99.90
53152;DHT22;39234;53.158;6.322;2023-04-03T07:03:50;13.70;99.90
53152;DHT22;39234;53.158;6.322;2023-04-03T07:06:17;13.70;99.90
53152;DHT22;39234;53.158;6.322;2023-04-03T07:08:43;13.80;99.90
53152;DHT22;39234;53.158;6.322;2023-04-03T07:11:10;13.40;99.90
53152;DHT22;39234;53.158;6.322;2023-04-03T07:13:36;13.80;99.90
53152;DHT22;39234;53.158;6.322;2023-04-03T07:16:03;14.10;99.90
53152;DHT22;39234;53.158;6.322;2023-04-03T07:18:31;14.40;99.90
53152;DHT22;39234;53.158;6.322;2023-04-03T07:20:56;14.80;99.90
53152;DHT22;39234;53.158;6.322;2023-04-03T07:23:22;14.60;99.90
53152;DHT22;39234;53.158;6.322;2023-04-03T07:25:50;14.30;99.90
53152;DHT22;39234;53.158;6.322;2023-04-03T07:28:18;13.90;99.90
53152;DHT22;39234;53.158;6.322;2023-04-03T07:30:49;13.70;99.90
53152;DHT22;39234;53.158;6.322;2023-04-03T07:33:16;13.60;99.90
53152;DHT22;39234;53.158;6.322;2023-04-03T07:35:43;12.50;99.90
53152;DHT22;39234;53.158;6.322;2023-04-03T07:38:09;11.90;99.90
53152;DHT22;39234;53.158;6.322;2023-04-03T07:40:36;10.90;99.90
53152;DHT22;39234;53.158;6.322;2023-04-03T07:43:02;10.60;99.90
53152;DHT22;39234;53.158;6.322;2023-04-03T07:45:29;10.40;99.90
53152;DHT22;39234;53.158;6.322;2023-04-03T07:47:55;10.00;99.90
53152;DHT22;39234;53.158;6.322;2023-04-03T07:50:21;9.90;99.90
53152;DHT22;39234;53.158;6.322;2023-04-03T07:52:47;10.00;99.90
53152;DHT22;39234;53.158;6.322;2023-04-03T07:55:13;9.50;99.90
53152;DHT22;39234;53.158;6.322;2023-04-03T07:57:39;9.00;99.90
53152;DHT22;39234;53.158;6.322;2023-04-03T08:00:06;9.00;99.90
53152;DHT22;39234;53.158;6.322;2023-04-03T08:02:32;9.40;99.90
53152;DHT22;39234;53.158;6.322;2023-04-03T08:04:58;10.20;99.90
53152;DHT22;39234;53.158;6.322;2023-04-03T08:07:25;10.40;99.90
53152;DHT22;39234;53.158;6.322;2023-04-03T08:09:51;10.40;99.90
53152;DHT22;39234;53.158;6.322;2023-04-03T08:12:16;10.30;99.90
53152;DHT22;39234;53.158;6.322;2023-04-03T08:14:42;10.30;99.90
53152;DHT22;39234;53.158;6.322;2023-04-03T08:17:08;10.90;99.90
53152;DHT22;39234;53.158;6.322;2023-04-03T08:19:38;11.80;99.90
53152;DHT22;39234;53.158;6.322;2023-04-03T08:22:04;12.20;99.90
53152;DHT22;39234;53.158;6.322;2023-04-03T08:24:31;12.50;99.90
53152;DHT22;39234;53.158;6.322;2023-04-03T08:26:57;12.20;99.90
53152;DHT22;39234;53.158;6.322;2023-04-03T08:29:23;11.70;99.90
53152;DHT22;39234;53.158;6.322;2023-04-03T08:31:50;11.00;99.90
53152;DHT22;39234;53.158;6.322;2023-04-03T08:34:16;10.30;99.90
53152;DHT22;39234;53.158;6.322;2023-04-03T08:36:42;9.60;99.90
53152;DHT22;39234;53.158;6.322;2023-04-03T08:39:08;9.50;99.90
53152;DHT22;39234;53.158;6.322;2023-04-03T08:41:37;8.70;99.90
53152;DHT22;39234;53.158;6.322;2023-04-03T08:47:32;8.70;99.90
53152;DHT22;39234;53.158;6.322;2023-04-03T08:50:11;9.10;99.90
53152;DHT22;39234;53.158;6.322;2023-04-03T08:52:41;8.50;99.90
53152;DHT22;39234;53.158;6.322;2023-04-03T08:55:28;8.60;99.90
53152;DHT22;39234;53.158;6.322;2023-04-03T08:58:12;8.70;99.90
53152;DHT22;39234;53.158;6.322;2023-04-03T09:03:14;8.40;99.90
53152;DHT22;39234;53.158;6.322;2023-04-03T09:05:46;8.70;99.90
53152;DHT22;39234;53.158;6.322;2023-04-03T09:08:31;8.70;99.90
53152;DHT22;39234;53.158;6.322;2023-04-03T09:11:44;8.40;99.90
53152;DHT22;39234;53.158;6.322;2023-04-03T09:16:54;7.50;99.90
53152;DHT22;39234;53.158;6.322;2023-04-03T09:22:34;8.70;99.90
53152;DHT22;39234;53.158;6.322;2023-04-03T09:27:39;9.20;99.90
53152;DHT22;39234;53.158;6.322;2023-04-03T09:30:06;9.40;99.90
53152;DHT22;39234;53.158;6.322;2023-04-03T09:32:37;9.70;99.90
53152;DHT22;39234;53.158;6.322;2023-04-03T09:35:17;10.20;99.90
53152;DHT22;39234;53.158;6.322;2023-04-03T09:37:46;11.10;99.90
53152;DHT22;39234;53.158;6.322;2023-04-03T09:40:32;11.20;99.90
53152;DHT22;39234;53.158;6.322;2023-04-03T09:43:02;10.90;99.90
53152;DHT22;39234;53.158;6.322;2023-04-03T09:45:34;10.50;99.90
53152;DHT22;39234;53.158;6.322;2023-04-03T09:53:26;9.20;99.90
53152;DHT22;39234;53.158;6.322;2023-04-03T09:55:52;8.70;99.90
53152;DHT22;39234;53.158;6.322;2023-04-03T09:58:31;8.50;99.90
53152;DHT22;39234;53.158;6.322;2023-04-03T10:01:00;8.20;99.90
53152;DHT22;39234;53.158;6.322;2023-04-03T10:03:32;8.30;99.90
53152;DHT22;39234;53.158;6.322;2023-04-03T10:06:00;8.20;99.90
53152;DHT22;39234;53.158;6.322;2023-04-03T10:08:33;8.10;99.90
53152;DHT22;39234;53.158;6.322;2023-04-03T10:11:25;8.40;99.90
53152;DHT22;39234;53.158;6.322;2023-04-03T10:14:02;8.50;99.90
53152;DHT22;39234;53.158;6.322;2023-04-03T10:16:40;8.30;99.90
53152;DHT22;39234;53.158;6.322;2023-04-03T10:19:43;8.00;99.90
53152;DHT22;39234;53.158;6.322;2023-04-03T10:28:03;8.40;99.90
53152;DHT22;39234;53.158;6.322;2023-04-03T10:33:28;9.00;99.90
53152;DHT22;39234;53.158;6.322;2023-04-03T10:41:40;8.90;99.90
53152;DHT22;39234;53.158;6.322;2023-04-03T10:46:51;9.20;99.90
53152;DHT22;39234;53.158;6.322;2023-04-03T10:49:40;9.40;99.90
53152;DHT22;39234;53.158;6.322;2023-04-03T10:52:28;9.50;99.90
53152;DHT22;39234;53.158;6.322;2023-04-03T10:55:28;9.50;99.90
53152;DHT22;39234;53.158;6.322;2023-04-03T10:57:56;9.50;99.90
53152;DHT22;39234;53.158;6.322;2023-04-03T11:00:39;9.30;99.90
53152;DHT22;39234;53.158;6.322;2023-04-03T11:05:51;9.40;99.90
53152;DHT22;39234;53.158;6.322;2023-04-03T11:08:44;9.20;99.90
53152;DHT22;39234;53.158;6.322;2023-04-03T11:11:29;9.20;99.90
53152;DHT22;39234;53.158;6.322;2023-04-03T11:14:32;9.80;99.90
53152;DHT22;39234;53.158;6.322;2023-04-03T11:19:46;9.90;99.90
53152;DHT22;39234;53.158;6.322;2023-04-03T11:22:43;9.70;99.90
53152;DHT22;39234;53.158;6.322;2023-04-03T11:35:45;9.70;99.90
53152;DHT22;39234;53.158;6.322;2023-04-03T11:38:19;9.90;99.90
53152;DHT22;39234;53.158;6.322;2023-04-03T11:40:49;9.60;99.90
53152;DHT22;39234;53.158;6.322;2023-04-03T11:43:32;9.80;99.90
53152;DHT22;39234;53.158;6.322;2023-04-03T11:46:08;9.60;99.90
53152;DHT22;39234;53.158;6.322;2023-04-03T11:53:40;9.60;99.90
53152;DHT22;39234;53.158;6.322;2023-04-03T11:59:21;9.80;99.90
53152;DHT22;39234;53.158;6.322;2023-04-03T12:01:53;10.00;99.90
53152;DHT22;39234;53.158;6.322;2023-04-03T12:04:21;10.00;99.90
53152;DHT22;39234;53.158;6.322;2023-04-03T12:12:40;10.00;99.90
53152;DHT22;39234;53.158;6.322;2023-04-03T12:17:50;10.00;99.90
53152;DHT22;39234;53.158;6.322;2023-04-03T12:20:46;9.60;99.90
53152;DHT22;39234;53.158;6.322;2023-04-03T12:23:25;9.70;99.90
53152;DHT22;39234;53.158;6.322;2023-04-03T12:25:51;9.40;99.90
53152;DHT22;39234;53.158;6.322;2023-04-03T12:28:24;9.60;99.90
53152;DHT22;39234;53.158;6.322;2023-04-03T12:30:50;9.60;99.90
53152;DHT22;39234;53.158;6.322;2023-04-03T12:36:45;9.30;99.90
53152;DHT22;39234;53.158;6.322;2023-04-03T12:39:20;9.60;99.90
53152;DHT22;39234;53.158;6.322;2023-04-03T12:42:15;9.70;99.90
53152;DHT22;39234;53.158;6.322;2023-04-03T12:47:38;9.60;99.90
53152;DHT22;39234;53.158;6.322;2023-04-03T12:50:36;9.60;99.90
53152;DHT22;39234;53.158;6.322;2023-04-03T12:53:16;9.60;99.90
53152;DHT22;39234;53.158;6.322;2023-04-03T12:55:43;9.50;99.90
53152;DHT22;39234;53.158;6.322;2023-04-03T12:58:26;9.40;99.90
53152;DHT22;39234;53.158;6.322;2023-04-03T13:01:13;9.40;99.90
53152;DHT22;39234;53.158;6.322;2023-04-03T13:03:43;9.50;99.90
53152;DHT22;39234;53.158;6.322;2023-04-03T13:06:21;9.60;99.90
53152;DHT22;39234;53.158;6.322;2023-04-03T13:08:59;9.70;99.90
53152;DHT22;39234;53.158;6.322;2023-04-03T13:11:30;9.60;99.90
53152;DHT22;39234;53.158;6.322;2023-04-03T13:14:03;9.40;99.90
53152;DHT22;39234;53.158;6.322;2023-04-03T13:16:30;9.50;99.90
53152;DHT22;39234;53.158;6.322;2023-04-03T13:18:57;9.40;99.90
53152;DHT22;39234;53.158;6.322;2023-04-03T13:21:28;9.50;99.90
53152;DHT22;39234;53.158;6.322;2023-04-03T13:23:57;10.20;99.90
53152;DHT22;39234;53.158;6.322;2023-04-03T13:26:26;9.10;99.90
53152;DHT22;39234;53.158;6.322;2023-04-03T13:28:58;9.40;99.90
53152;DHT22;39234;53.158;6.322;2023-04-03T13:31:30;9.30;99.90
53152;DHT22;39234;53.158;6.322;2023-04-03T13:36:45;9.30;99.90
53152;DHT22;39234;53.158;6.322;2023-04-03T13:41:47;9.70;99.90
53152;DHT22;39234;53.158;6.322;2023-04-03T13:49:31;9.40;99.90
53152;DHT22;39234;53.158;6.322;2023-04-03T13:51:57;9.40;99.90
53152;DHT22;39234;53.158;6.322;2023-04-03T13:54:37;9.40;99.90
53152;DHT22;39234;53.158;6.322;2023-04-03T13:57:13;9.40;99.90
53152;DHT22;39234;53.158;6.322;2023-04-03T13:59:39;9.20;99.90
53152;DHT22;39234;53.158;6.322;2023-04-03T14:07:03;9.20;99.90
53152;DHT22;39234;53.158;6.322;2023-04-03T14:09:29;9.20;99.90
53152;DHT22;39234;53.158;6.322;2023-04-03T14:12:40;9.60;99.90
53152;DHT22;39234;53.158;6.322;2023-04-03T14:14:46;9.40;99.90
53152;DHT22;39234;53.158;6.322;2023-04-03T14:17:18;9.40;99.90
53152;DHT22;39234;53.158;6.322;2023-04-03T14:19:45;9.20;99.90
53152;DHT22;39234;53.158;6.322;2023-04-03T14:22:32;9.20;99.90
53152;DHT22;39234;53.158;6.322;2023-04-03T14:24:59;9.40;99.90
53152;DHT22;39234;53.158;6.322;2023-04-03T14:27:33;9.20;99.90
53152;DHT22;39234;53.158;6.322;2023-04-03T14:30:00;8.90;99.90
53152;DHT22;39234;53.158;6.322;2023-04-03T14:32:28;9.00;99.90
53152;DHT22;39234;53.158;6.322;2023-04-03T14:34:54;9.00;99.90
53152;DHT22;39234;53.158;6.322;2023-04-03T14:37:26;9.30;99.90
53152;DHT22;39234;53.158;6.322;2023-04-03T14:39:56;9.10;99.90
53152;DHT22;39234;53.158;6.322;2023-04-03T14:42:29;9.10;99.90
53152;DHT22;39234;53.158;6.322;2023-04-03T14:44:57;9.10;99.90
53152;DHT22;39234;53.158;6.322;2023-04-03T14:47:26;8.80;99.90
53152;DHT22;39234;53.158;6.322;2023-04-03T14:49:53;9.00;99.90
53152;DHT22;39234;53.158;6.322;2023-04-03T14:52:23;8.70;99.90
53152;DHT22;39234;53.158;6.322;2023-04-03T14:54:49;8.70;99.90
53152;DHT22;39234;53.158;6.322;2023-04-03T14:57:16;8.70;99.90
53152;DHT22;39234;53.158;6.322;2023-04-03T14:59:43;8.80;99.90
53152;DHT22;39234;53.158;6.322;2023-04-03T15:02:28;8.70;99.90
53152;DHT22;39234;53.158;6.322;2023-04-03T15:04:55;8.70;99.90
53152;DHT22;39234;53.158;6.322;2023-04-03T15:07:22;8.50;99.90
53152;DHT22;39234;53.158;6.322;2023-04-03T15:09:49;8.50;99.90
53152;DHT22;39234;53.158;6.322;2023-04-03T15:12:15;8.70;99.90
53152;DHT22;39234;53.158;6.322;2023-04-03T15:14:41;8.40;99.90
53152;DHT22;39234;53.158;6.322;2023-04-03T15:17:14;8.50;99.90
53152;DHT22;39234;53.158;6.322;2023-04-03T15:19:40;8.40;99.90
53152;DHT22;39234;53.158;6.322;2023-04-03T15:22:08;8.50;99.90
53152;DHT22;39234;53.158;6.322;2023-04-03T15:24:35;8.50;99.90
53152;DHT22;39234;53.158;6.322;2023-04-03T15:27:01;8.40;99.90
53152;DHT22;39234;53.158;6.322;2023-04-03T15:29:27;8.50;99.90
53152;DHT22;39234;53.158;6.322;2023-04-03T15:31:53;8.40;99.90
53152;DHT22;39234;53.158;6.322;2023-04-03T15:34:19;8.40;99.90
53152;DHT22;39234;53.158;6.322;2023-04-03T15:36:46;8.40;99.90
53152;DHT22;39234;53.158;6.322;2023-04-03T15:39:12;8.20;99.90
53152;DHT22;39234;53.158;6.322;2023-04-03T15:41:38;8.30;99.90
53152;DHT22;39234;53.158;6.322;2023-04-03T15:44:04;8.40;99.90
53152;DHT22;39234;53.158;6.322;2023-04-03T15:46:29;8.20;99.90
53152;DHT22;39234;53.158;6.322;2023-04-03T15:48:55;8.10;99.90
53152;DHT22;39234;53.158;6.322;2023-04-03T15:51:21;8.10;99.90
53152;DHT22;39234;53.158;6.322;2023-04-03T15:53:47;8.40;99.90
53152;DHT22;39234;53.158;6.322;2023-04-03T15:56:12;8.40;99.90
53152;DHT22;39234;53.158;6.322;2023-04-03T15:58:38;8.40;99.90
53152;DHT22;39234;53.158;6.322;2023-04-03T16:01:04;8.40;99.90
53152;DHT22;39234;53.158;6.322;2023-04-03T16:03:30;8.40;99.90
53152;DHT22;39234;53.158;6.322;2023-04-03T16:05:57;8.20;99.90
53152;DHT22;39234;53.158;6.322;2023-04-03T16:08:22;8.20;99.90
53152;DHT22;39234;53.158;6.322;2023-04-03T16:10:48;7.60;99.90
53152;DHT22;39234;53.158;6.322;2023-04-03T16:13:14;8.10;99.90
53152;DHT22;39234;53.158;6.322;2023-04-03T16:15:40;8.10;99.90
53152;DHT22;39234;53.158;6.322;2023-04-03T16:18:07;8.00;99.90
53152;DHT22;39234;53.158;6.322;2023-04-03T16:20:34;7.80;99.90
53152;DHT22;39234;53.158;6.322;2023-04-03T16:23:01;7.90;99.90
53152;DHT22;39234;53.158;6.322;2023-04-03T16:25:27;7.90;99.90
53152;DHT22;39234;53.158;6.322;2023-04-03T16:27:53;7.80;99.90
53152;DHT22;39234;53.158;6.322;2023-04-03T16:30:19;7.70;99.90
53152;DHT22;39234;53.158;6.322;2023-04-03T16:32:45;7.80;99.90
53152;DHT22;39234;53.158;6.322;2023-04-03T16:35:11;7.80;99.90
53152;DHT22;39234;53.158;6.322;2023-04-03T16:37:38;7.80;99.90
53152;DHT22;39234;53.158;6.322;2023-04-03T16:40:06;7.40;99.90
53152;DHT22;39234;53.158;6.322;2023-04-03T16:42:32;7.50;99.90
53152;DHT22;39234;53.158;6.322;2023-04-03T16:44:58;7.40;99.90
53152;DHT22;39234;53.158;6.322;2023-04-03T16:47:26;7.40;99.90
53152;DHT22;39234;53.158;6.322;2023-04-03T16:49:52;7.30;99.90
53152;DHT22;39234;53.158;6.322;2023-04-03T16:52:17;7.20;99.90
53152;DHT22;39234;53.158;6.322;2023-04-03T16:54:43;7.00;99.90
53152;DHT22;39234;53.158;6.322;2023-04-03T16:57:09;7.00;99.90
53152;DHT22;39234;53.158;6.322;2023-04-03T16:59:35;7.00;99.90
53152;DHT22;39234;53.158;6.322;2023-04-03T17:02:01;6.90;99.90
53152;DHT22;39234;53.158;6.322;2023-04-03T17:04:26;6.90;99.90
53152;DHT22;39234;53.158;6.322;2023-04-03T17:06:52;6.80;99.90
53152;DHT22;39234;53.158;6.322;2023-04-03T17:09:18;6.70;99.90
53152;DHT22;39234;53.158;6.322;2023-04-03T17:11:46;6.60;99.90
53152;DHT22;39234;53.158;6.322;2023-04-03T17:21:31;6.50;99.90
53152;DHT22;39234;53.158;6.322;2023-04-03T17:24:01;6.30;99.90
53152;DHT22;39234;53.158;6.322;2023-04-03T17:41:08;5.90;99.90
53152;DHT22;39234;53.158;6.322;2023-04-03T17:43:34;5.70;99.90
53152;DHT22;39234;53.158;6.322;2023-04-03T17:46:02;5.70;99.90
53152;DHT22;39234;53.158;6.322;2023-04-03T17:48:29;5.60;99.90
53152;DHT22;39234;53.158;6.322;2023-04-03T18:07:59;5.00;99.90
53152;DHT22;39234;53.158;6.322;2023-04-03T18:10:26;4.90;99.90
53152;DHT22;39234;53.158;6.322;2023-04-03T18:20:12;4.50;99.90
53152;DHT22;39234;53.158;6.322;2023-04-03T18:25:06;4.50;99.90
53152;DHT22;39234;53.158;6.322;2023-04-03T18:30:03;4.40;99.90
53152;DHT22;39234;53.158;6.322;2023-04-03T18:32:31;4.90;99.90
53152;DHT22;39234;53.158;6.322;2023-04-03T18:42:18;4.20;99.90
53152;DHT22;39234;53.158;6.322;2023-04-03T18:44:47;4.10;99.90
53152;DHT22;39234;53.158;6.322;2023-04-03T18:49:42;4.00;99.90
53152;DHT22;39234;53.158;6.322;2023-04-03T18:52:10;3.90;99.90
53152;DHT22;39234;53.158;6.322;2023-04-03T18:57:03;3.80;99.90
53152;DHT22;39234;53.158;6.322;2023-04-03T19:31:16;3.20;99.90
53152;DHT22;39234;53.158;6.322;2023-04-03T19:33:43;3.30;99.90
53152;DHT22;39234;53.158;6.322;2023-04-03T19:36:09;3.20;99.90
53152;DHT22;39234;53.158;6.322;2023-04-03T19:41:13;3.00;99.90
53152;DHT22;39234;53.158;6.322;2023-04-03T19:55:55;2.90;99.90
53152;DHT22;39234;53.158;6.322;2023-04-03T20:03:14;2.60;99.90
53152;DHT22;39234;53.158;6.322;2023-04-03T20:30:09;2.40;99.90
53152;DHT22;39234;53.158;6.322;2023-04-03T21:04:29;1.80;99.90
53152;DHT22;39234;53.158;6.322;2023-04-03T21:25:39;1.10;99.90
53152;DHT22;39234;53.158;6.322;2023-04-03T21:50:02;0.80;99.90
53152;DHT22;39234;53.158;6.322;2023-04-03T22:46:07;0.10;99.90
53152;DHT22;39234;53.158;6.322;2023-04-03T22:56:00;-0.10;99.90
53152;DHT22;39234;53.158;6.322;2023-04-03T22:58:27;0.10;99.90
53152;DHT22;39234;53.158;6.322;2023-04-03T23:01:04;-0.20;99.90
53152;DHT22;39234;53.158;6.322;2023-04-03T23:10:53;0.00;99.90
53152;DHT22;39234;53.158;6.322;2023-04-03T23:15:54;-0.10;99.90
53152;DHT22;39234;53.158;6.322;2023-04-03T23:23:23;-0.30;99.90
53152;DHT22;39234;53.158;6.322;2023-04-03T23:25:53;-0.10;99.90
53152;DHT22;39234;53.158;6.322;2023-04-03T23:35:47;-0.10;99.90
53152;DHT22;39234;53.158;6.322;2023-04-03T23:40:44;-0.20;99.90
